UAL1267 KLAS-KSFO
Flight info
| Callsign | UAL1267 |
|---|---|
| Flight time | 1h 9m |
| Altitude | 38000 |
| Route | JOHKR5 KENNO RUSME DYAMD5 |
| Aircraft | B737/M-SDE2E3FGHIRWXY/LB1 |
Departure
| Time | 2026-05-04 03:47 |
|---|---|
| Airport | Harry Reid International Airport (KLAS) |
Arrival
| Time | 2026-05-04 04:56 |
|---|---|
| Airport | San Francisco International Airport (KSFO) |
| Time | Latitude | Longitude | Altitude | Speed | Heading |
|---|---|---|---|---|---|
| 2026-05-04 03:23 | 36.08313 | -115.14002 | 2187 ft | 0 kts | 133° |
| 2026-05-04 03:36 | 36.08315 | -115.14005 | 2187 ft | 2 kts | 133° |
| 2026-05-04 03:36 | 36.08328 | -115.14021 | 2188 ft | 3 kts | 131° |
| 2026-05-04 03:36 | 36.08341 | -115.14041 | 2187 ft | 3 kts | 125° |
| 2026-05-04 03:37 | 36.08351 | -115.14062 | 2187 ft | 3 kts | 104° |
| 2026-05-04 03:37 | 36.08351 | -115.14081 | 2190 ft | 2 kts | 51° |
| 2026-05-04 03:37 | 36.08349 | -115.14084 | 2187 ft | 0 kts | 44° |
| 2026-05-04 03:41 | 36.08360 | -115.14071 | 2189 ft | 6 kts | 44° |
| 2026-05-04 03:41 | 36.08401 | -115.14020 | 2188 ft | 11 kts | 49° |
| 2026-05-04 03:41 | 36.08416 | -115.13915 | 2189 ft | 13 kts | 90° |
| 2026-05-04 03:41 | 36.08417 | -115.13786 | 2188 ft | 17 kts | 90° |
| 2026-05-04 03:42 | 36.08417 | -115.13679 | 2187 ft | 20 kts | 90° |
| 2026-05-04 03:42 | 36.08417 | -115.13564 | 2188 ft | 12 kts | 89° |
| 2026-05-04 03:42 | 36.08393 | -115.13452 | 2188 ft | 16 kts | 126° |
| 2026-05-04 03:42 | 36.08256 | -115.13372 | 2188 ft | 18 kts | 179° |
| 2026-05-04 03:43 | 36.08171 | -115.13372 | 2188 ft | 18 kts | 180° |
| 2026-05-04 03:43 | 36.08051 | -115.13374 | 2189 ft | 17 kts | 180° |
| 2026-05-04 03:43 | 36.07934 | -115.13375 | 2189 ft | 16 kts | 179° |
| 2026-05-04 03:43 | 36.07839 | -115.13349 | 2191 ft | 13 kts | 128° |
| 2026-05-04 03:44 | 36.07828 | -115.13229 | 2189 ft | 16 kts | 89° |
| 2026-05-04 03:44 | 36.07829 | -115.13070 | 2187 ft | 17 kts | 90° |
| 2026-05-04 03:44 | 36.07829 | -115.12918 | 2187 ft | 20 kts | 90° |
| 2026-05-04 03:44 | 36.07829 | -115.12731 | 2187 ft | 22 kts | 89° |
| 2026-05-04 03:45 | 36.07829 | -115.12524 | 2187 ft | 25 kts | 90° |
| 2026-05-04 03:45 | 36.07829 | -115.12326 | 2187 ft | 17 kts | 90° |
| 2026-05-04 03:45 | 36.07791 | -115.12210 | 2187 ft | 15 kts | 128° |
| 2026-05-04 03:45 | 36.07728 | -115.12131 | 2190 ft | 13 kts | 155° |
| 2026-05-04 03:46 | 36.07650 | -115.12134 | 2189 ft | 10 kts | 223° |
| 2026-05-04 03:46 | 36.07641 | -115.12180 | 2190 ft | 0 kts | 269° |
| 2026-05-04 03:46 | 36.07641 | -115.12200 | 2189 ft | 16 kts | 271° |
| 2026-05-04 03:46 | 36.07640 | -115.12654 | 2190 ft | 90 kts | 270° |
| 2026-05-04 03:47 | 36.07633 | -115.13696 | 2192 ft | 150 kts | 270° |
| 2026-05-04 03:47 | 36.07656 | -115.15080 | 2646 ft | 165 kts | 262° |
| 2026-05-04 03:47 | 36.07650 | -115.16561 | 3267 ft | 175 kts | 267° |
| 2026-05-04 03:47 | 36.07645 | -115.18039 | 4083 ft | 170 kts | 267° |
| 2026-05-04 03:48 | 36.07660 | -115.19540 | 4780 ft | 177 kts | 271° |
| 2026-05-04 03:48 | 36.07625 | -115.21038 | 5574 ft | 177 kts | 259° |
| 2026-05-04 03:48 | 36.07388 | -115.22672 | 5853 ft | 209 kts | 258° |
| 2026-05-04 03:48 | 36.06922 | -115.24482 | 6213 ft | 232 kts | 240° |
| 2026-05-04 03:49 | 36.05909 | -115.26047 | 6871 ft | 246 kts | 221° |
| 2026-05-04 03:49 | 36.04347 | -115.27088 | 7509 ft | 261 kts | 202° |
| 2026-05-04 03:49 | 36.02618 | -115.27877 | 8441 ft | 266 kts | 201° |
| 2026-05-04 03:49 | 36.00881 | -115.28659 | 9524 ft | 267 kts | 200° |
| 2026-05-04 03:50 | 35.99121 | -115.29465 | 10402 ft | 273 kts | 201° |
| 2026-05-04 03:50 | 35.97336 | -115.30531 | 10734 ft | 300 kts | 207° |
| 2026-05-04 03:50 | 35.95436 | -115.31813 | 11165 ft | 319 kts | 207° |
| 2026-05-04 03:50 | 35.93460 | -115.33143 | 11944 ft | 326 kts | 207° |
| 2026-05-04 03:51 | 35.91473 | -115.34515 | 12794 ft | 331 kts | 213° |
| 2026-05-04 03:51 | 35.89823 | -115.36537 | 13662 ft | 341 kts | 232° |
| 2026-05-04 03:51 | 35.88783 | -115.39197 | 14516 ft | 350 kts | 251° |
| 2026-05-04 03:51 | 35.88488 | -115.42202 | 15477 ft | 357 kts | 266° |
| 2026-05-04 03:52 | 35.88551 | -115.45269 | 16422 ft | 359 kts | 269° |
| 2026-05-04 03:52 | 35.88669 | -115.48314 | 17358 ft | 361 kts | 269° |
| 2026-05-04 03:52 | 35.88767 | -115.51411 | 18241 ft | 363 kts | 269° |
| 2026-05-04 03:52 | 35.88841 | -115.54519 | 19134 ft | 361 kts | 268° |
| 2026-05-04 03:53 | 35.88903 | -115.57589 | 20186 ft | 355 kts | 267° |
| 2026-05-04 03:53 | 35.88960 | -115.60608 | 21180 ft | 350 kts | 267° |
| 2026-05-04 03:53 | 35.89015 | -115.63609 | 22084 ft | 349 kts | 266° |
| 2026-05-04 03:53 | 35.89070 | -115.66600 | 22921 ft | 349 kts | 266° |
| 2026-05-04 03:54 | 35.89123 | -115.69585 | 23685 ft | 348 kts | 266° |
| 2026-05-04 03:54 | 35.89177 | -115.72581 | 24232 ft | 351 kts | 266° |
| 2026-05-04 03:54 | 35.89230 | -115.75612 | 24720 ft | 356 kts | 266° |
| 2026-05-04 03:54 | 35.89283 | -115.78677 | 25249 ft | 359 kts | 267° |
| 2026-05-04 03:55 | 35.89338 | -115.81757 | 25787 ft | 361 kts | 267° |
| 2026-05-04 03:55 | 35.89392 | -115.84861 | 26311 ft | 363 kts | 267° |
| 2026-05-04 03:55 | 35.89444 | -115.87987 | 26820 ft | 365 kts | 267° |
| 2026-05-04 03:55 | 35.89700 | -115.91131 | 27286 ft | 375 kts | 279° |
| 2026-05-04 03:56 | 35.90590 | -115.94187 | 27778 ft | 385 kts | 289° |
| 2026-05-04 03:56 | 35.92042 | -115.97030 | 28239 ft | 401 kts | 302° |
| 2026-05-04 03:56 | 35.93961 | -115.99566 | 28761 ft | 407 kts | 306° |
| 2026-05-04 03:56 | 35.95985 | -116.02034 | 29201 ft | 411 kts | 307° |
| 2026-05-04 03:57 | 35.98043 | -116.04495 | 29609 ft | 411 kts | 307° |
| 2026-05-04 03:57 | 36.00089 | -116.06943 | 30099 ft | 409 kts | 307° |
| 2026-05-04 03:57 | 36.02097 | -116.09370 | 30528 ft | 410 kts | 306° |
| 2026-05-04 03:57 | 36.04121 | -116.11842 | 31146 ft | 405 kts | 306° |
| 2026-05-04 03:58 | 36.08066 | -116.16702 | 32450 ft | 395 kts | 305° |
| 2026-05-04 03:58 | 36.10008 | -116.19110 | 32997 ft | 393 kts | 304° |
| 2026-05-04 03:58 | 36.11935 | -116.21504 | 33439 ft | 392 kts | 304° |
| 2026-05-04 03:59 | 36.13838 | -116.23872 | 33850 ft | 392 kts | 304° |
| 2026-05-04 03:59 | 36.15762 | -116.26267 | 34190 ft | 393 kts | 304° |
| 2026-05-04 03:59 | 36.17686 | -116.28662 | 34519 ft | 393 kts | 304° |
| 2026-05-04 03:59 | 36.19614 | -116.31062 | 34876 ft | 393 kts | 304° |
| 2026-05-04 04:00 | 36.21542 | -116.33462 | 35204 ft | 392 kts | 304° |
| 2026-05-04 04:00 | 36.23471 | -116.35866 | 35518 ft | 393 kts | 303° |
| 2026-05-04 04:00 | 36.25397 | -116.38267 | 35821 ft | 393 kts | 303° |
| 2026-05-04 04:00 | 36.27328 | -116.40675 | 36134 ft | 392 kts | 303° |
| 2026-05-04 04:01 | 36.29262 | -116.43066 | 36430 ft | 394 kts | 304° |
| 2026-05-04 04:01 | 36.31223 | -116.45411 | 36687 ft | 396 kts | 305° |
| 2026-05-04 04:01 | 36.33216 | -116.47764 | 36963 ft | 396 kts | 306° |
| 2026-05-04 04:01 | 36.35206 | -116.50108 | 37341 ft | 393 kts | 305° |
| 2026-05-04 04:02 | 36.37187 | -116.52452 | 37619 ft | 394 kts | 305° |
| 2026-05-04 04:02 | 36.39165 | -116.54807 | 37662 ft | 394 kts | 304° |
| 2026-05-04 04:02 | 36.43140 | -116.59550 | 37694 ft | 399 kts | 305° |
| 2026-05-04 04:03 | 36.47206 | -116.64295 | 37703 ft | 405 kts | 307° |
| 2026-05-04 04:03 | 36.51405 | -116.69020 | 37709 ft | 405 kts | 307° |
| 2026-05-04 04:04 | 36.55527 | -116.73687 | 37709 ft | 397 kts | 307° |
| 2026-05-04 04:04 | 36.59593 | -116.78328 | 37707 ft | 396 kts | 307° |
| 2026-05-04 04:05 | 36.63622 | -116.82929 | 37715 ft | 395 kts | 307° |
| 2026-05-04 04:05 | 36.67682 | -116.87573 | 37721 ft | 396 kts | 307° |
| 2026-05-04 04:06 | 36.71750 | -116.92230 | 37730 ft | 397 kts | 307° |
| 2026-05-04 04:06 | 36.76301 | -116.96353 | 37765 ft | 416 kts | 321° |
| 2026-05-04 04:07 | 36.81497 | -116.99645 | 37772 ft | 420 kts | 322° |
| 2026-05-04 04:07 | 36.86695 | -117.02909 | 37737 ft | 419 kts | 322° |
| 2026-05-04 04:08 | 36.91878 | -117.06225 | 37756 ft | 417 kts | 321° |
| 2026-05-04 04:08 | 36.97026 | -117.09565 | 37770 ft | 416 kts | 321° |
| 2026-05-04 04:09 | 37.02177 | -117.12924 | 37770 ft | 418 kts | 321° |
| 2026-05-04 04:09 | 37.07351 | -117.16299 | 37792 ft | 418 kts | 321° |
| 2026-05-04 04:10 | 37.12495 | -117.19660 | 37792 ft | 420 kts | 321° |
| 2026-05-04 04:10 | 37.17687 | -117.23056 | 37777 ft | 420 kts | 321° |
| 2026-05-04 04:11 | 37.22871 | -117.26451 | 37796 ft | 420 kts | 321° |
| 2026-05-04 04:11 | 37.28073 | -117.29864 | 37807 ft | 423 kts | 321° |
| 2026-05-04 04:12 | 37.32794 | -117.33910 | 37816 ft | 407 kts | 309° |
| 2026-05-04 04:12 | 37.37043 | -117.38646 | 37792 ft | 408 kts | 308° |
| 2026-05-04 04:13 | 37.41350 | -117.43360 | 37795 ft | 411 kts | 309° |
| 2026-05-04 04:13 | 37.45717 | -117.48044 | 37795 ft | 413 kts | 310° |
| 2026-05-04 04:14 | 37.47724 | -117.50501 | 37766 ft | 400 kts | 297° |
| 2026-05-04 04:14 | 37.49103 | -117.53457 | 37801 ft | 386 kts | 285° |
| 2026-05-04 04:14 | 37.49854 | -117.56640 | 37801 ft | 375 kts | 273° |
| 2026-05-04 04:14 | 37.50195 | -117.59891 | 37788 ft | 374 kts | 271° |
| 2026-05-04 04:15 | 37.50689 | -117.66417 | 37787 ft | 375 kts | 270° |
| 2026-05-04 04:15 | 37.51168 | -117.72990 | 37774 ft | 378 kts | 270° |
| 2026-05-04 04:16 | 37.51678 | -117.79601 | 37768 ft | 380 kts | 270° |
| 2026-05-04 04:16 | 37.52206 | -117.86236 | 37777 ft | 381 kts | 270° |
| 2026-05-04 04:17 | 37.52739 | -117.92901 | 37771 ft | 383 kts | 270° |
| 2026-05-04 04:17 | 37.53268 | -117.99529 | 37776 ft | 383 kts | 271° |
| 2026-05-04 04:18 | 37.53798 | -118.06215 | 37807 ft | 383 kts | 270° |
| 2026-05-04 04:18 | 37.54323 | -118.12892 | 37827 ft | 383 kts | 270° |
| 2026-05-04 04:19 | 37.54845 | -118.19582 | 37847 ft | 383 kts | 270° |
| 2026-05-04 04:19 | 37.55363 | -118.26275 | 37862 ft | 384 kts | 270° |
| 2026-05-04 04:20 | 37.55878 | -118.32997 | 37866 ft | 386 kts | 270° |
| 2026-05-04 04:20 | 37.56390 | -118.39701 | 37859 ft | 387 kts | 270° |
| 2026-05-04 04:21 | 37.56901 | -118.46452 | 37864 ft | 387 kts | 270° |
| 2026-05-04 04:21 | 37.57409 | -118.53210 | 37849 ft | 386 kts | 270° |
| 2026-05-04 04:22 | 37.57911 | -118.59937 | 37952 ft | 386 kts | 270° |
| 2026-05-04 04:22 | 37.58409 | -118.66676 | 38003 ft | 386 kts | 270° |
| 2026-05-04 04:23 | 37.58903 | -118.73423 | 38045 ft | 387 kts | 270° |
| 2026-05-04 04:23 | 37.59394 | -118.80157 | 38044 ft | 388 kts | 270° |
| 2026-05-04 04:24 | 37.59884 | -118.86953 | 38038 ft | 389 kts | 270° |
| 2026-05-04 04:24 | 37.60374 | -118.93746 | 38043 ft | 389 kts | 270° |
| 2026-05-04 04:25 | 37.60855 | -119.00575 | 38028 ft | 394 kts | 270° |
| 2026-05-04 04:25 | 37.61337 | -119.07430 | 38003 ft | 395 kts | 270° |
| 2026-05-04 04:26 | 37.61822 | -119.14347 | 37983 ft | 396 kts | 270° |
| 2026-05-04 04:26 | 37.62303 | -119.21284 | 37965 ft | 397 kts | 270° |
| 2026-05-04 04:27 | 37.62780 | -119.28229 | 37955 ft | 397 kts | 270° |
| 2026-05-04 04:27 | 37.63250 | -119.35181 | 37961 ft | 397 kts | 270° |
| 2026-05-04 04:28 | 37.63714 | -119.42136 | 37910 ft | 399 kts | 271° |
| 2026-05-04 04:28 | 37.63872 | -119.44460 | 37710 ft | 400 kts | 271° |
| 2026-05-04 04:28 | 37.64188 | -119.49123 | 37355 ft | 398 kts | 271° |
| 2026-05-04 04:29 | 37.64422 | -119.52603 | 37094 ft | 398 kts | 271° |
| 2026-05-04 04:29 | 37.64575 | -119.54910 | 36935 ft | 399 kts | 271° |
| 2026-05-04 04:29 | 37.64805 | -119.58398 | 36670 ft | 399 kts | 271° |
| 2026-05-04 04:29 | 37.65034 | -119.61899 | 36425 ft | 400 kts | 271° |
| 2026-05-04 04:30 | 37.65263 | -119.65406 | 36174 ft | 401 kts | 271° |
| 2026-05-04 04:30 | 37.65492 | -119.68925 | 35937 ft | 402 kts | 271° |
| 2026-05-04 04:30 | 37.65720 | -119.72447 | 35694 ft | 403 kts | 271° |
| 2026-05-04 04:30 | 37.65946 | -119.75984 | 35439 ft | 404 kts | 271° |
| 2026-05-04 04:31 | 37.66169 | -119.79470 | 35187 ft | 403 kts | 271° |
| 2026-05-04 04:31 | 37.66395 | -119.83010 | 34960 ft | 404 kts | 271° |
| 2026-05-04 04:31 | 37.66621 | -119.86539 | 34654 ft | 402 kts | 271° |
| 2026-05-04 04:31 | 37.66844 | -119.90032 | 34232 ft | 397 kts | 271° |
| 2026-05-04 04:32 | 37.67061 | -119.93494 | 33784 ft | 392 kts | 271° |
| 2026-05-04 04:32 | 37.67275 | -119.96906 | 33295 ft | 389 kts | 271° |
| 2026-05-04 04:32 | 37.67488 | -120.00294 | 32860 ft | 385 kts | 271° |
| 2026-05-04 04:32 | 37.67696 | -120.03645 | 32415 ft | 382 kts | 271° |
| 2026-05-04 04:33 | 37.67903 | -120.06980 | 32010 ft | 378 kts | 271° |
| 2026-05-04 04:33 | 37.68106 | -120.10282 | 31597 ft | 376 kts | 271° |
| 2026-05-04 04:33 | 37.68307 | -120.13567 | 31178 ft | 374 kts | 271° |
| 2026-05-04 04:33 | 37.68505 | -120.16835 | 30788 ft | 372 kts | 271° |
| 2026-05-04 04:34 | 37.68702 | -120.20087 | 30399 ft | 371 kts | 271° |
| 2026-05-04 04:34 | 37.68898 | -120.23331 | 30013 ft | 371 kts | 271° |
| 2026-05-04 04:34 | 37.69092 | -120.26576 | 29555 ft | 371 kts | 271° |
| 2026-05-04 04:34 | 37.69285 | -120.29805 | 29181 ft | 378 kts | 271° |
| 2026-05-04 04:35 | 37.69484 | -120.33157 | 28744 ft | 386 kts | 271° |
| 2026-05-04 04:35 | 37.69685 | -120.36533 | 28307 ft | 384 kts | 271° |
| 2026-05-04 04:35 | 37.69879 | -120.39875 | 27885 ft | 379 kts | 269° |
| 2026-05-04 04:35 | 37.69755 | -120.43148 | 27503 ft | 369 kts | 259° |
| 2026-05-04 04:36 | 37.69383 | -120.46333 | 27076 ft | 365 kts | 257° |
| 2026-05-04 04:36 | 37.68965 | -120.49481 | 26683 ft | 361 kts | 257° |
| 2026-05-04 04:36 | 37.68555 | -120.52597 | 26272 ft | 358 kts | 257° |
| 2026-05-04 04:36 | 37.68163 | -120.55696 | 25874 ft | 355 kts | 258° |
| 2026-05-04 04:37 | 37.67051 | -120.64955 | 24999 ft | 373 kts | 258° |
| 2026-05-04 04:37 | 37.66653 | -120.68308 | 24793 ft | 398 kts | 258° |
| 2026-05-04 04:38 | 37.66240 | -120.71805 | 24557 ft | 403 kts | 258° |
| 2026-05-04 04:38 | 37.65831 | -120.75277 | 24313 ft | 404 kts | 258° |
| 2026-05-04 04:38 | 37.65415 | -120.78779 | 24082 ft | 404 kts | 258° |
| 2026-05-04 04:38 | 37.64993 | -120.82286 | 23856 ft | 403 kts | 258° |
| 2026-05-04 04:39 | 37.64572 | -120.85776 | 23299 ft | 402 kts | 258° |
| 2026-05-04 04:39 | 37.64153 | -120.89252 | 22713 ft | 395 kts | 258° |
| 2026-05-04 04:39 | 37.63742 | -120.92656 | 22114 ft | 390 kts | 258° |
| 2026-05-04 04:39 | 37.63335 | -120.96013 | 21536 ft | 385 kts | 258° |
| 2026-05-04 04:40 | 37.62911 | -120.99324 | 20973 ft | 380 kts | 257° |
| 2026-05-04 04:40 | 37.62480 | -121.02548 | 20402 ft | 376 kts | 257° |
| 2026-05-04 04:40 | 37.62042 | -121.05783 | 19833 ft | 372 kts | 257° |
| 2026-05-04 04:40 | 37.61610 | -121.08984 | 19279 ft | 369 kts | 257° |
| 2026-05-04 04:41 | 37.61181 | -121.12160 | 18727 ft | 365 kts | 257° |
| 2026-05-04 04:41 | 37.60758 | -121.15304 | 18165 ft | 362 kts | 257° |
| 2026-05-04 04:41 | 37.60338 | -121.18425 | 17539 ft | 360 kts | 257° |
| 2026-05-04 04:41 | 37.59922 | -121.21517 | 16963 ft | 356 kts | 257° |
| 2026-05-04 04:42 | 37.59508 | -121.24586 | 16402 ft | 353 kts | 256° |
| 2026-05-04 04:42 | 37.59106 | -121.27622 | 15854 ft | 349 kts | 257° |
| 2026-05-04 04:42 | 37.58748 | -121.30636 | 15324 ft | 347 kts | 258° |
| 2026-05-04 04:42 | 37.58409 | -121.33639 | 14783 ft | 344 kts | 258° |
| 2026-05-04 04:43 | 37.58076 | -121.36611 | 14249 ft | 341 kts | 257° |
| 2026-05-04 04:43 | 37.57746 | -121.39524 | 13712 ft | 338 kts | 257° |
| 2026-05-04 04:43 | 37.57413 | -121.42451 | 13123 ft | 336 kts | 257° |
| 2026-05-04 04:43 | 37.57081 | -121.45347 | 12594 ft | 333 kts | 257° |
| 2026-05-04 04:44 | 37.56746 | -121.48230 | 12031 ft | 331 kts | 256° |
| 2026-05-04 04:44 | 37.56414 | -121.51082 | 11502 ft | 328 kts | 256° |
| 2026-05-04 04:44 | 37.56082 | -121.53921 | 10981 ft | 326 kts | 256° |
| 2026-05-04 04:44 | 37.55754 | -121.56735 | 10612 ft | 320 kts | 256° |
| 2026-05-04 04:45 | 37.55439 | -121.59453 | 10471 ft | 306 kts | 256° |
| 2026-05-04 04:45 | 37.55135 | -121.62054 | 10336 ft | 294 kts | 255° |
| 2026-05-04 04:45 | 37.54696 | -121.64537 | 10107 ft | 283 kts | 247° |
| 2026-05-04 04:47 | 37.51378 | -121.77979 | 8339 ft | 257 kts | 248° |
| 2026-05-04 04:47 | 37.50865 | -121.80124 | 8081 ft | 255 kts | 248° |
| 2026-05-04 04:47 | 37.50351 | -121.82254 | 7764 ft | 254 kts | 248° |
| 2026-05-04 04:47 | 37.49843 | -121.84376 | 7467 ft | 253 kts | 248° |
| 2026-05-04 04:48 | 37.49334 | -121.86495 | 7142 ft | 253 kts | 248° |
| 2026-05-04 04:49 | 37.49491 | -121.95148 | 6767 ft | 239 kts | 270° |
| 2026-05-04 04:49 | 37.49630 | -121.97245 | 6400 ft | 240 kts | 270° |
| 2026-05-04 04:49 | 37.49758 | -121.99325 | 5986 ft | 237 kts | 270° |
| 2026-05-04 04:49 | 37.49879 | -122.01371 | 5574 ft | 232 kts | 270° |
| 2026-05-04 04:50 | 37.49995 | -122.03352 | 5161 ft | 228 kts | 271° |
| 2026-05-04 04:50 | 37.50109 | -122.05332 | 4732 ft | 225 kts | 271° |
| 2026-05-04 04:50 | 37.50220 | -122.07279 | 4292 ft | 222 kts | 271° |
| 2026-05-04 04:50 | 37.50423 | -122.09197 | 4039 ft | 223 kts | 285° |
| 2026-05-04 04:51 | 37.51043 | -122.10994 | 4017 ft | 226 kts | 295° |
| 2026-05-04 04:51 | 37.51777 | -122.12748 | 3991 ft | 226 kts | 296° |
| 2026-05-04 04:51 | 37.52518 | -122.14501 | 3820 ft | 228 kts | 295° |
| 2026-05-04 04:51 | 37.53256 | -122.16266 | 3532 ft | 226 kts | 296° |
| 2026-05-04 04:52 | 37.53971 | -122.17984 | 3238 ft | 216 kts | 296° |
| 2026-05-04 04:52 | 37.54650 | -122.19618 | 2952 ft | 206 kts | 296° |
| 2026-05-04 04:52 | 37.55300 | -122.21182 | 2682 ft | 196 kts | 296° |
| 2026-05-04 04:52 | 37.55919 | -122.22670 | 2442 ft | 188 kts | 296° |
| 2026-05-04 04:53 | 37.56515 | -122.24102 | 2172 ft | 178 kts | 296° |
| 2026-05-04 04:53 | 37.57067 | -122.25426 | 1936 ft | 165 kts | 296° |
| 2026-05-04 04:53 | 37.57591 | -122.26685 | 1717 ft | 161 kts | 296° |
| 2026-05-04 04:53 | 37.58109 | -122.27933 | 1510 ft | 165 kts | 296° |
| 2026-05-04 04:54 | 37.58646 | -122.29221 | 1255 ft | 163 kts | 296° |
| 2026-05-04 04:54 | 37.59132 | -122.30395 | 1108 ft | 142 kts | 295° |
| 2026-05-04 04:54 | 37.59562 | -122.31470 | 944 ft | 133 kts | 295° |
| 2026-05-04 04:54 | 37.59990 | -122.32504 | 696 ft | 133 kts | 296° |
| 2026-05-04 04:55 | 37.60428 | -122.33525 | 496 ft | 131 kts | 295° |
| 2026-05-04 04:55 | 37.60851 | -122.34536 | 299 ft | 131 kts | 295° |
| 2026-05-04 04:55 | 37.61287 | -122.35541 | 100 ft | 129 kts | 294° |
| 2026-05-04 04:55 | 37.61690 | -122.36490 | 27 ft | 112 kts | 294° |
| 2026-05-04 04:56 | 37.61990 | -122.37238 | 22 ft | 75 kts | 298° |
| 2026-05-04 04:56 | 37.62220 | -122.37794 | 21 ft | 66 kts | 297° |
| 2026-05-04 04:56 | 37.62410 | -122.38241 | 22 ft | 50 kts | 298° |
| 2026-05-04 04:56 | 37.62495 | -122.38488 | 21 ft | 23 kts | 283° |
| 2026-05-04 04:57 | 37.62502 | -122.38683 | 21 ft | 22 kts | 269° |
| 2026-05-04 04:57 | 37.62466 | -122.38865 | 23 ft | 21 kts | 224° |
| 2026-05-04 04:57 | 37.62355 | -122.38916 | 21 ft | 15 kts | 161° |
| 2026-05-04 04:57 | 37.62295 | -122.38812 | 23 ft | 15 kts | 117° |
| 2026-05-04 04:58 | 37.62249 | -122.38702 | 21 ft | 14 kts | 118° |
| 2026-05-04 04:58 | 37.62184 | -122.38634 | 21 ft | 12 kts | 177° |
| 2026-05-04 04:58 | 37.62121 | -122.38572 | 21 ft | 12 kts | 118° |
| 2026-05-04 04:58 | 37.62064 | -122.38529 | 21 ft | 8 kts | 185° |
| 2026-05-04 04:59 | 37.62010 | -122.38541 | 21 ft | 8 kts | 191° |
| 2026-05-04 04:59 | 37.61960 | -122.38551 | 21 ft | 6 kts | 165° |
| 2026-05-04 04:59 | 37.61937 | -122.38513 | 21 ft | 3 kts | 118° |
| 2026-05-04 04:59 | 37.61929 | -122.38494 | 21 ft | 1 kts | 118° |
| 2026-05-04 05:00 | 37.61928 | -122.38491 | 21 ft | 0 kts | 118° |